Data for 08/22/2007

Time Sea-Level Adjusted Pressure Absolute Pressure Temperature Relative Humidity Dew Point   
(mb) (inHg) (mb) (inHg) (C) (F) (%) (C) (F)
00:05 1021 30.15 850 25.1 10.6 51.1 63 3.8 38.9
00:10 1021 30.15 850 25.1 11.1 52 60 3.7 38.6
00:15 1021 30.15 850 25.1 11.4 52.6 60 3.9 39.1
00:20 1021 30.15 850 25.1 11.4 52.5 60 3.8 38.9
00:25 1021 30.15 850 25.1 11.4 52.6 58 3.5 38.3
00:30 1021 30.15 850 25.1 11.4 52.5 60 4 39.1
00:35 1021 30.15 850 25.1 11.2 52.1 61 3.9 39
00:40 1021 30.15 850 25.1 11.1 52 61 3.8 38.9
00:45 1021 30.15 850 25.1 11.1 52 60 3.8 38.8
00:50 1021 30.15 850 25.1 10.9 51.7 61 3.7 38.6
00:55 1021 30.15 850 25.1 10.8 51.4 61 3.7 38.7
01:00 1021 30.15 850 25.1 10.7 51.3 62 3.7 38.6
01:05 1021 30.15 850 25.1 10.7 51.2 62 3.7 38.7
01:10 1021 30.15 850 25.1 10.6 51.1 62 3.6 38.6
01:15 1021 30.15 850 25.1 10.4 50.8 63 3.8 38.8
01:20 1021 30.15 850 25.1 10.4 50.6 63 3.6 38.5
01:25 1021 30.15 850 25.1 10.4 50.7 63 3.7 38.6
01:30 1021 30.15 850 25.1 10.4 50.6 63 3.6 38.5
01:35 1021 30.15 850 25.1 10.1 50.3 65 3.8 38.9
01:40 1021 30.15 850 25.1 9.7 49.5 66 3.8 38.9
01:45 1021 30.15 850 25.1 9.4 49 67 3.7 38.6
01:50 1021 30.15 850 25.1 9.5 49 67 3.7 38.7
01:55 1021 30.15 850 25.1 9.5 49.1 66 3.6 38.4
02:00 1021 30.15 850 25.1 9.7 49.5 65 3.6 38.4
02:05 1021 30.15 850 25.1 10 49.9 63 3.3 38
02:10 1021 30.15 850 25.1 10.4 50.7 61 3.3 38
02:15 1021 30.15 850 25.1 10.6 51 62 3.6 38.4
02:20 1021 30.15 850 25.1 10.5 50.8 63 3.7 38.6
02:25 1021 30.15 850 25.1 10.3 50.5 62 3.3 37.9
02:30 1021 30.15 850 25.1 10.4 50.7 61 3.3 38
02:35 1021 30.15 850 25.1 10.4 50.8 60 3.2 37.7
02:40 1021 30.15 850 25.1 10.6 51.1 60 3.1 37.6
02:45 1021 30.15 850 25.1 10.9 51.7 58 2.9 37.3
02:50 1021 30.15 850 25.1 11.1 52 58 3.1 37.6
02:55 1021 30.15 850 25.1 11.2 52.1 58 3.3 38
03:00 1021 30.15 850 25.1 11.2 52.1 58 3.2 37.7
03:05 1021 30.15 850 25.1 11.3 52.3 57 3 37.4
03:10 1021 30.15 850 25.1 11.4 52.6 57 3.3 37.9
03:15 1021 30.15 850 25.1 11.4 52.5 59 3.7 38.6
03:20 1021 30.15 850 25.1 11.5 52.6 59 3.8 38.9
03:25 1020 30.12 850 25.1 11.4 52.5 60 4 39.1
03:30 1020 30.12 850 25.1 11.2 52.2 60 3.8 38.9
03:35 1020 30.12 850 25.1 11 51.9 61 3.9 39.1
03:40 1020 30.12 850 25.1 11 51.8 61 3.8 38.9
03:45 1020 30.12 850 25.1 11.1 51.9 61 4 39.2
03:50 1020 30.12 850 25.1 11.1 52 60 3.8 38.8
03:55 1020 30.12 850 25.1 11 51.9 61 3.9 39.1
04:00 1020 30.12 850 25.1 10.9 51.5 62 4 39.2
04:05 1020 30.12 850 25.1 10.8 51.5 63 4 39.3
04:10 1020 30.12 850 25.1 10.7 51.3 64 4.3 39.7
04:15 1020 30.12 850 25.1 10.5 50.9 65 4.3 39.8
04:20 1020 30.12 850 25.1 10.3 50.6 66 4.2 39.6
04:25 1020 30.12 850 25.1 10.4 50.7 65 4.2 39.5
04:30 1020 30.12 849 25.07 10.4 50.8 63 3.8 38.9
04:35 1020 30.12 850 25.1 10.7 51.3 61 3.6 38.4
04:40 1020 30.12 850 25.1 10.9 51.6 63 4.1 39.3
04:45 1020 30.12 850 25.1 10.7 51.3 60 3.4 38.1
04:50 1020 30.12 850 25.1 10.9 51.5 61 3.6 38.5
04:55 1020 30.12 850 25.1 10.7 51.2 63 3.9 39.1
05:00 1020 30.12 849 25.07 10.5 50.8 63 3.7 38.7
05:05 1020 30.12 849 25.07 10.4 50.7 64 3.9 38.9
05:10 1020 30.12 849 25.07 10.3 50.5 64 3.8 38.8
05:15 1020 30.12 849 25.07 10.2 50.3 64 3.8 38.8
05:20 1020 30.12 849 25.07 10.2 50.4 64 3.7 38.6
05:25 1020 30.12 849 25.07 10.5 50.8 62 3.6 38.4
05:30 1020 30.12 849 25.07 10.8 51.5 61 3.6 38.5
05:35 1020 30.12 849 25.07 10.8 51.5 63 4 39.3
05:40 1020 30.12 849 25.07 10.6 51.1 64 4.1 39.4
05:45 1020 30.12 849 25.07 10.3 50.5 66 4.3 39.7
05:50 1020 30.12 849 25.07 10.1 50.2 67 4.3 39.8
05:55 1020 30.12 849 25.07 10 50 67 4.2 39.5
06:00 1020 30.12 849 25.07 9.9 49.9 68 4.4 39.9
06:05 1020 30.12 849 25.07 9.7 49.4 71 4.7 40.4
06:10 1020 30.12 849 25.07 9.1 48.4 73 4.6 40.2
06:15 1020 30.12 849 25.07 9.1 48.5 72 4.4 40
06:20 1020 30.12 849 25.07 9.5 49 67 3.7 38.7
06:25 1020 30.12 849 25.07 9.8 49.6 66 3.8 38.9
06:30 1020 30.12 849 25.07 9.9 49.8 66 4 39.1
06:35 1020 30.12 849 25.07 10 50 67 4.2 39.5
06:40 1020 30.12 849 25.07 10.1 50.2 65 3.8 38.9
06:45 1020 30.12 849 25.07 10.1 50.1 65 3.7 38.7
06:50 1020 30.12 849 25.07 9.9 49.9 68 4.4 40
06:55 1020 30.12 849 25.07 9.7 49.4 70 4.5 40
07:00 1020 30.12 849 25.07 9.8 49.6 70 4.6 40.3
07:05 1020 30.12 849 25.07 9.8 49.6 71 4.7 40.5
07:10 1020 30.12 849 25.07 9.9 49.8 70 4.7 40.4
07:15 1020 30.12 849 25.07 10 49.9 70 4.7 40.4
07:20 1020 30.12 849 25.07 10 50 70 4.8 40.6
07:25 1020 30.12 849 25.07 10.2 50.4 68 4.7 40.4
07:30 1020 30.12 849 25.07 10.3 50.5 71 5.3 41.5
07:35 1020 30.12 849 25.07 10.1 50.1 72 5.3 41.5
07:40 1020 30.12 849 25.07 10 50 72 5.3 41.6
07:45 1020 30.12 849 25.07 10.2 50.3 68 4.5 40.1
07:50 1020 30.12 849 25.07 10.6 51.1 68 5 40.9
07:55 1020 30.12 849 25.07 11.1 52 65 4.9 40.8
08:00 1020 30.12 849 25.07 11.4 52.5 61 4.3 39.7
08:05 1020 30.12 849 25.07 11.5 52.6 61 4.3 39.8
08:10 1020 30.12 849 25.07 11.7 53.1 62 4.7 40.5
08:15 1020 30.12 849 25.07 11.8 53.2 63 5.1 41.2
08:20 1020 30.12 849 25.07 11.9 53.3 59 4.2 39.6
08:25 1020 30.12 849 25.07 12.1 53.8 56 3.6 38.4
08:30 1020 30.12 849 25.07 12.5 54.5 55 3.7 38.6
08:35 1020 30.12 849 25.07 12.6 54.6 55 3.9 39.1
08:40 1020 30.12 849 25.07 12.7 54.8 55 4 39.1
08:45 1020 30.12 849 25.07 12.7 54.9 55 3.9 39.1
08:50 1020 30.12 849 25.07 12.7 54.8 54 3.8 38.8
08:55 1020 30.12 849 25.07 12.8 55.1 53 3.6 38.4
09:00 1020 30.12 849 25.07 12.5 54.6 56 4 39.1
09:05 1020 30.12 849 25.07 12.3 54.1 55 3.7 38.7
09:10 1020 30.12 849 25.07 12.8 55.1 54 3.8 38.9
09:15 1020 30.12 849 25.07 13.1 55.5 55 4.2 39.5
09:20 1020 30.12 849 25.07 13.1 55.7 54 4.1 39.4
09:25 1020 30.12 849 25.07 13.5 56.2 54 4.5 40
09:30 1020 30.12 849 25.07 13.5 56.2 55 4.5 40.2
09:35 1020 30.12 849 25.07 13.3 55.9 54 4.1 39.5
09:40 1020 30.12 849 25.07 13.4 56.1 53 4.2 39.5
09:45 1020 30.12 849 25.07 13.6 56.5 53 4.2 39.6
09:50 1020 30.12 849 25.07 13.7 56.6 52 4.2 39.5
09:55 1020 30.12 849 25.07 13.3 56 54 4.4 39.9
10:00 1020 30.12 849 25.07 13.6 56.5 52 4 39.2
10:05 1020 30.12 849 25.07 13.9 57 53 4.4 39.9
10:10 1020 30.12 849 25.07 13.8 56.9 53 4.4 39.9
10:15 1020 30.12 849 25.07 13.8 56.8 53 4.4 39.9
10:20 1020 30.12 849 25.07 14 57.3 51 4.2 39.5
10:25 1020 30.12 849 25.07 13.8 56.8 51 3.9 39.1
10:30 1020 30.12 849 25.07 13.8 56.8 52 4.1 39.4
10:35 1020 30.12 849 25.07 14.1 57.4 52 4.6 40.2
10:40 1020 30.12 849 25.07 14.7 58.4 49 4.3 39.7
10:45 1020 30.12 849 25.07 14.8 58.7 50 4.6 40.4
10:50 1020 30.12 849 25.07 15 59 50 4.7 40.5
10:55 1020 30.12 849 25.07 14.9 58.8 51 5 41.1
11:00 1020 30.12 849 25.07 15 58.9 50 4.8 40.6
11:05 1020 30.12 849 25.07 15.4 59.6 48 4.4 39.9
11:10 1020 30.12 849 25.07 15.7 60.2 47 4.4 40
11:15 1020 30.12 849 25.07 15.3 59.6 50 5 41
11:20 1020 30.12 849 25.07 15.6 60.1 46 4 39.2
11:25 1020 30.12 849 25.07 16 60.8 45 4.1 39.3
11:30 1020 30.12 849 25.07 16.9 62.3 42 4.1 39.3
11:35 1020 30.12 849 25.07 17.5 63.4 41 4.3 39.7
11:40 1020 30.12 849 25.07 17.3 63.1 43 4.6 40.3
11:45 1020 30.12 849 25.07 17.8 64 40 4.2 39.5
11:50 1020 30.12 849 25.07 18 64.4 39 4.1 39.3
11:55 1019 30.09 849 25.07 18 64.3 39 4 39.3
12:00 1019 30.09 849 25.07 17.7 63.9 40 4.3 39.7
12:05 1019 30.09 849 25.07 17.2 63 43 4.6 40.2
12:10 1019 30.09 849 25.07 17.5 63.4 41 4.1 39.3
12:15 1019 30.09 849 25.07 17.7 63.9 40 4.2 39.6
12:20 1019 30.09 849 25.07 18.1 64.6 38 3.8 38.8
12:25 1019 30.09 848 25.04 18.9 66 36 3.5 38.2
12:30 1019 30.09 848 25.04 19 66.3 37 4 39.2
12:35 1019 30.09 848 25.04 18.7 65.7 35 3.2 37.8
12:40 1019 30.09 848 25.04 19 66.3 36 3.6 38.5
12:45 1019 30.09 848 25.04 19.2 66.6 34 3.2 37.8
12:50 1019 30.09 848 25.04 19.1 66.4 36 3.7 38.7
12:55 1019 30.09 848 25.04 18.7 65.7 37 4 39.2
13:00 1019 30.09 848 25.04 18.6 65.5 37 3.8 38.9
13:05 1019 30.09 848 25.04 19.1 66.3 37 4 39.3
13:10 1019 30.09 848 25.04 18.9 66.1 36 3.7 38.6
13:15 1019 30.09 848 25.04 17.5 63.4 42 4.5 40.2
13:20 1019 30.09 848 25.04 17.5 63.5 39 3.5 38.3
13:25 1019 30.09 848 25.04 18.1 64.6 40 4.3 39.8
13:30 1019 30.09 848 25.04 18.8 65.8 36 3.4 38.1
13:35 1019 30.09 848 25.04 19.9 67.8 33 3.5 38.3
13:40 1019 30.09 848 25.04 19.5 67 34 3.5 38.3
13:45 1018 30.06 848 25.04 18.9 66 34 2.8 37
13:50 1018 30.06 848 25.04 20 67.9 33 3.4 38.1
13:55 1018 30.06 848 25.04 19.6 67.3 34 3.6 38.4
14:00 1018 30.06 847 25.01 18.7 65.7 37 3.7 38.7
14:05 1018 30.06 847 25.01 19.4 66.9 34 3.5 38.2
14:10 1018 30.06 847 25.01 19.8 67.7 34 3.6 38.4
14:15 1018 30.06 847 25.01 20.2 68.4 34 3.9 39
14:20 1018 30.06 847 25.01 19.2 66.6 36 4 39.3
14:25 1018 30.06 847 25.01 18.9 66 37 4 39.2
14:30 1018 30.06 847 25.01 19.2 66.5 34 3.1 37.7
14:35 1018 30.06 847 25.01 19.9 67.8 34 3.8 38.8
14:40 1018 30.06 847 25.01 19.4 67 35 3.9 39
14:45 1018 30.06 847 25.01 19.3 66.8 34 3.4 38.1
14:50 1018 30.06 847 25.01 20.5 68.8 34 4.1 39.5
14:55 1018 30.06 847 25.01 20.2 68.4 35 4.4 40
15:00 1018 30.06 847 25.01 20 68 35 4 39.3
15:05 1018 30.06 847 25.01 19.7 67.4 35 3.8 38.8
15:10 1018 30.06 847 25.01 19.4 66.8 35 3.6 38.4
15:15 1018 30.06 847 25.01 19.7 67.5 34 3.6 38.4
15:20 1018 30.06 847 25.01 19.9 67.7 34 3.6 38.4
15:25 1017 30.03 847 25.01 19.5 67.1 34 3.3 38
15:30 1017 30.03 847 25.01 19.4 67 34 3.2 37.8
15:35 1017 30.03 846 24.98 19.4 66.9 35 3.5 38.4
15:40 1017 30.03 846 24.98 19.8 67.7 33 3 37.5
15:45 1017 30.03 846 24.98 19.6 67.2 33 3.2 37.7
15:50 1017 30.03 846 24.98 19.9 67.8 33 3.4 38.1
15:55 1017 30.03 846 24.98 19.6 67.4 32 2.7 36.9
16:00 1017 30.03 846 24.98 20 68 32 3.1 37.6
16:05 1017 30.03 846 24.98 20.1 68.2 33 3.6 38.5
16:10 1017 30.03 846 24.98 19.5 67 33 3.1 37.6
16:15 1017 30.03 846 24.98 19.4 66.8 33 2.7 36.9
16:20 1017 30.03 846 24.98 19.6 67.3 32 2.6 36.7
16:25 1017 30.03 846 24.98 19.6 67.3 32 2.7 36.8
16:30 1017 30.03 846 24.98 19.5 67.1 34 3.2 37.7
16:35 1017 30.03 846 24.98 19.5 67.2 32 2.6 36.7
16:40 1017 30.03 846 24.98 19.5 67.1 33 2.8 37.1
16:45 1017 30.03 846 24.98 19.3 66.7 33 2.9 37.2
16:50 1017 30.03 846 24.98 19.4 66.9 33 2.9 37.3
16:55 1017 30.03 846 24.98 19.9 67.8 31 2.6 36.7
17:00 1017 30.03 846 24.98 20.1 68.1 32 3 37.4
17:05 1017 30.03 846 24.98 19.8 67.6 32 2.9 37.3
17:10 1017 30.03 846 24.98 19.4 67 33 3 37.5
17:15 1017 30.03 846 24.98 19.4 67 34 3.2 37.7
17:20 1017 30.03 846 24.98 19.4 66.8 33 2.8 37.1
17:25 1017 30.03 846 24.98 19.2 66.5 34 3 37.4
17:30 1017 30.03 846 24.98 19.2 66.5 34 3 37.4
17:35 1017 30.03 846 24.98 19 66.2 34 2.9 37.2
17:40 1017 30.03 846 24.98 19 66.3 35 3.2 37.7
17:45 1017 30.03 846 24.98 19.3 66.8 34 3 37.5
17:50 1017 30.03 846 24.98 19.3 66.7 34 3.2 37.7
17:55 1017 30.03 846 24.98 18.7 65.7 35 3.2 37.8
18:00 1017 30.03 846 24.98 18.7 65.7 35 3 37.3
18:05 1017 30.03 846 24.98 18.5 65.3 35 2.8 37
18:10 1017 30.03 846 24.98 18.4 65.2 36 3.1 37.6
18:15 1017 30.03 847 25.01 18.3 64.9 36 3 37.3
18:20 1017 30.03 847 25.01 18.1 64.6 36 3.1 37.6
18:25 1017 30.03 846 24.98 17.8 64 37 3.2 37.7
18:30 1017 30.03 847 25.01 17.6 63.7 37 2.9 37.3
18:35 1017 30.03 846 24.98 17.5 63.5 37 2.9 37.3
18:40 1017 30.03 847 25.01 17.5 63.5 38 3.3 37.9
18:45 1017 30.03 846 24.98 17.5 63.5 38 3 37.4
18:50 1017 30.03 846 24.98 17.4 63.3 39 3.3 38
18:55 1017 30.03 847 25.01 17.4 63.4 39 3.3 37.9
19:00 1017 30.03 847 25.01 17.3 63.1 39 3.4 38.1
19:05 1017 30.03 846 24.98 17.2 63 39 3.3 37.9
19:10 1017 30.03 847 25.01 17.1 62.8 40 3.4 38.1
19:15 1017 30.03 846 24.98 17 62.7 40 3.3 38
19:20 1017 30.03 846 24.98 17 62.6 39 3.2 37.8
19:25 1017 30.03 846 24.98 16.9 62.5 40 3.2 37.8
19:30 1017 30.03 846 24.98 16.8 62.2 39 3 37.4
19:35 1017 30.03 846 24.98 16.7 62.1 40 3.1 37.5
19:40 1017 30.03 846 24.98 16.6 62 40 3.1 37.6
19:45 1017 30.03 846 24.98 16.6 61.9 40 3.1 37.5
19:50 1017 30.03 847 25.01 16.6 61.8 41 3.2 37.7
19:55 1017 30.03 847 25.01 16.4 61.5 41 3.2 37.7
20:00 1017 30.03 847 25.01 16.3 61.3 40 2.9 37.1
20:05 1017 30.03 847 25.01 16.2 61.1 40 2.8 37
20:10 1017 30.03 847 25.01 16 60.9 41 2.9 37.3
20:15 1018 30.06 847 25.01 15.9 60.7 41 2.8 37
20:20 1018 30.06 847 25.01 15.8 60.5 41 2.6 36.7
20:25 1018 30.06 847 25.01 15.8 60.4 41 2.7 36.8
20:30 1018 30.06 847 25.01 15.7 60.3 41 2.6 36.8
20:35 1018 30.06 847 25.01 15.5 59.9 42 2.8 37
20:40 1018 30.06 847 25.01 15.3 59.6 42 2.7 36.8
20:45 1018 30.06 847 25.01 15.2 59.4 43 2.7 36.8
20:50 1018 30.06 847 25.01 15.1 59.2 43 2.6 36.7
20:55 1018 30.06 847 25.01 15 59 43 2.6 36.7
21:00 1018 30.06 847 25.01 14.9 58.8 43 2.6 36.7
21:05 1018 30.06 847 25.01 14.8 58.6 44 2.7 36.8
21:10 1018 30.06 847 25.01 14.8 58.6 44 2.7 36.8
21:15 1018 30.06 847 25.01 14.7 58.5 44 2.8 37
21:20 1018 30.06 847 25.01 14.7 58.4 45 2.8 37.1
21:25 1018 30.06 847 25.01 14.6 58.3 45 2.8 37
21:30 1018 30.06 847 25.01 14.6 58.3 45 2.9 37.2
21:35 1018 30.06 847 25.01 14.5 58.1 46 3 37.4
21:40 1018 30.06 847 25.01 14.4 58 46 3 37.4
21:45 1018 30.06 847 25.01 14.5 58 46 3 37.4
21:50 1018 30.06 847 25.01 14.4 57.8 46 3.1 37.5
21:55 1018 30.06 847 25.01 14.3 57.8 46 2.9 37.2
22:00 1018 30.06 847 25.01 14.3 57.7 46 2.9 37.3
22:05 1018 30.06 847 25.01 14.2 57.5 47 3 37.5
22:10 1018 30.06 847 25.01 14.1 57.4 47 3 37.5
22:15 1018 30.06 847 25.01 14.1 57.3 47 2.9 37.3
22:20 1018 30.06 847 25.01 14 57.2 47 3 37.4
22:25 1018 30.06 847 25.01 14 57.1 47 2.8 37.1
22:30 1018 30.06 847 25.01 14 57.2 45 2.5 36.5
22:35 1018 30.06 847 25.01 14 57.3 45 2.4 36.3
22:40 1018 30.06 847 25.01 14.1 57.4 44 2.2 36
22:45 1018 30.06 847 25.01 14.2 57.5 44 2.2 36
22:50 1018 30.06 847 25.01 14.1 57.4 45 2.3 36.2
22:55 1018 30.06 847 25.01 13.9 57.1 45 2.4 36.2
23:00 1018 30.06 847 25.01 13.9 57.1 45 2.4 36.3
23:05 1018 30.06 847 25.01 13.9 56.9 46 2.6 36.6
23:10 1018 30.06 847 25.01 13.8 56.8 46 2.6 36.6
23:15 1018 30.06 847 25.01 13.7 56.7 47 2.6 36.6
23:20 1018 30.06 847 25.01 13.7 56.7 47 2.5 36.6
23:25 1018 30.06 847 25.01 13.7 56.7 47 2.6 36.7
23:30 1018 30.06 847 25.01 13.7 56.6 47 2.6 36.7
23:35 1018 30.06 847 25.01 13.6 56.5 48 2.8 37
23:40 1018 30.06 847 25.01 13.5 56.3 48 2.7 36.9
23:45 1018 30.06 847 25.01 13.5 56.2 47 2.5 36.6
23:50 1018 30.06 847 25.01 13.5 56.3 47 2.6 36.7
23:55 1018 30.06 847 25.01 13.4 56.2 48 2.7 36.9
24:00 1018 30.06 847 25.01 13.3 56 48 2.7 36.9